CST,Max TemperatureF,Mean TemperatureF,Min TemperatureF,Max Dew PointF,MeanDew PointF,Min DewpointF,Max Humidity, Mean Humidity, Min Humidity, Max Sea Level PressureIn, Mean Sea Level PressureIn, Min Sea Level PressureIn, Max VisibilityMiles, Mean VisibilityMiles, Min VisibilityMiles, Max Wind SpeedMPH, Mean Wind SpeedMPH, Max Gust SpeedMPH,PrecipitationIn, CloudCover, Events, WindDirDegrees
2012-12-1,81,72,64,68,60,55,94,68,34,30.08,30.00,29.85,12,8,5,12,6,,0.00,4,Fog,125
2012-12-2,82,73,64,68,61,59,88,67,48,30.09,30.00,29.80,12,8,6,16,8,21,0.00,4,,79
2012-12-3,81,74,64,63,60,57,83,63,39,30.08,29.99,29.82,12,8,6,16,8,23,0.00,6,,96
2012-12-4,84,74,63,68,62,55,91,71,37,30.09,30.00,29.83,12,7,1,12,6,,0.24,5,Fog-Rain-Thunderstorm,126
2012-12-5,80,72,64,68,63,61,94,75,43,30.09,29.98,29.82,12,7,3,13,7,,0.01,5,Rain,120
2012-12-6,81,74,66,64,61,59,83,68,43,30.02,29.93,29.75,12,8,6,10,7,,0.00,4,,68
2012-12-7,81,72,63,66,61,59,83,68,41,30.00,29.90,29.74,12,8,6,13,7,17,0.00,2,,109
2012-12-8,77,70,64,68,63,59,94,76,52,30.03,29.93,29.72,12,7,2,15,5,,0.00,4,Fog,118
2012-12-9,85,73,61,68,59,55,82,62,31,30.04,29.95,29.79,12,8,6,14,8,23,0.00,2,,95
2012-12-10,87,76,65,70,64,61,94,70,32,30.01,29.92,29.72,12,7,3,13,8,,0.00,3,Fog,136
2012-12-11,86,76,67,69,63,59,94,65,32,30.02,29.92,29.72,12,8,6,12,6,,0.00,4,,76
2012-12-12,82,75,68,66,60,52,88,61,31,30.04,29.95,29.82,12,7,0,16,9,28,0.00,4,,88
2012-12-13,78,72,67,61,59,56,78,61,37,30.06,29.98,29.80,12,8,6,17,9,30,0.00,4,,96
2012-12-14,82,72,61,63,59,54,83,64,34,30.06,29.99,29.81,12,8,6,13,8,23,0.01,5,,88
2012-12-15,83,75,67,63,61,59,78,66,39,30.03,29.94,29.75,12,8,6,16,10,29,0.00,4,,104
2012-12-16,85,74,62,66,59,55,89,64,30,30.02,29.93,29.74,12,8,6,17,7,23,0.00,2,,97
2012-12-17,82,72,62,68,61,57,88,67,34,30.02,29.95,29.76,12,8,6,12,6,,0.00,3,,69
2012-12-18,84,73,62,68,60,54,94,67,25,30.02,29.94,29.79,12,8,2,12,6,,0.00,3,Fog-Rain,111
2012-12-19,84,74,65,64,57,53,78,55,27,30.01,29.93,29.75,12,9,6,16,9,21,0.00,2,Rain,101
2012-12-20,83,73,63,63,58,55,78,59,36,30.01,29.92,29.76,12,8,6,20,10,,0.00,2,,73
2012-12-21,80,74,69,61,59,55,73,60,41,30.03,29.93,29.65,12,7,6,16,10,32,0.00,4,,93
2012-12-22,80,74,67,59,57,52,68,55,35,30.03,29.94,29.78,12,8,6,24,16,37,0.00,2,,82
2012-12-23,80,73,66,61,59,55,73,61,38,29.99,29.91,29.73,12,8,6,20,16,34,0.00,3,,91
2012-12-24,84,75,66,63,60,55,78,62,39,30.01,29.93,29.74,12,8,6,15,11,26,0.00,4,,101
2012-12-25,82,74,67,67,64,62,83,71,50,30.00,29.91,29.75,12,8,6,15,10,23,0.04,6,Rain,103
2012-12-26,82,73,64,68,65,61,94,74,50,30.00,29.92,29.71,12,8,6,12,5,,0.00,4,Rain,181
2012-12-27,84,76,67,63,61,59,83,63,38,29.99,29.90,29.72,12,8,6,14,6,23,0.00,4,,88
2012-12-28,84,76,69,64,61,59,83,61,35,29.96,29.88,29.72,12,8,6,14,8,23,0.00,5,,100
2012-12-29,83,76,68,75,60,54,84,59,34,30.01,29.91,29.74,12,8,6,17,11,30,0.00,6,,89
2012-12-30,82,75,68,61,57,54,73,56,29,30.04,29.96,29.77,12,8,6,33,15,46,0.00,2,,77
2012-12-31,86,76,67,59,55,52,68,50,24,30.05,29.96,29.79,12,8,6,18,11,30,0.00,2,,85